sensor_id;sensor_type;location;lat;lon;timestamp;P1;durP1;ratioP1;P2;durP2;ratioP2
15637;SDS011;26604;53.596;10.042;2022-08-21T00:00:13;8.50;;;3.97;;
15637;SDS011;26604;53.596;10.042;2022-08-21T00:02:44;11.73;;;4.22;;
15637;SDS011;26604;53.596;10.042;2022-08-21T00:05:13;7.38;;;4.03;;
15637;SDS011;26604;53.596;10.042;2022-08-21T00:07:40;9.45;;;4.30;;
15637;SDS011;26604;53.596;10.042;2022-08-21T00:10:07;7.97;;;4.82;;
15637;SDS011;26604;53.596;10.042;2022-08-21T00:12:36;9.27;;;4.35;;
15637;SDS011;26604;53.596;10.042;2022-08-21T00:15:03;8.82;;;4.07;;
15637;SDS011;26604;53.596;10.042;2022-08-21T00:17:31;9.35;;;4.10;;
15637;SDS011;26604;53.596;10.042;2022-08-21T00:19:58;8.32;;;4.20;;
15637;SDS011;26604;53.596;10.042;2022-08-21T00:22:27;10.30;;;4.20;;
15637;SDS011;26604;53.596;10.042;2022-08-21T00:24:54;6.93;;;4.13;;
15637;SDS011;26604;53.596;10.042;2022-08-21T00:27:21;10.82;;;4.28;;
15637;SDS011;26604;53.596;10.042;2022-08-21T00:29:48;9.43;;;3.90;;
15637;SDS011;26604;53.596;10.042;2022-08-21T00:32:19;6.70;;;3.85;;
15637;SDS011;26604;53.596;10.042;2022-08-21T00:34:46;7.03;;;3.90;;
15637;SDS011;26604;53.596;10.042;2022-08-21T00:37:13;10.88;;;4.40;;
15637;SDS011;26604;53.596;10.042;2022-08-21T00:39:42;8.35;;;3.97;;
15637;SDS011;26604;53.596;10.042;2022-08-21T00:42:09;10.82;;;4.80;;
15637;SDS011;26604;53.596;10.042;2022-08-21T00:44:39;7.00;;;4.13;;
15637;SDS011;26604;53.596;10.042;2022-08-21T00:47:06;12.88;;;4.70;;
15637;SDS011;26604;53.596;10.042;2022-08-21T00:49:33;11.27;;;5.55;;
15637;SDS011;26604;53.596;10.042;2022-08-21T00:52:00;10.18;;;4.90;;
15637;SDS011;26604;53.596;10.042;2022-08-21T00:54:28;11.13;;;5.30;;
15637;SDS011;26604;53.596;10.042;2022-08-21T00:57:00;10.98;;;5.90;;
15637;SDS011;26604;53.596;10.042;2022-08-21T00:59:30;10.48;;;5.50;;
15637;SDS011;26604;53.596;10.042;2022-08-21T01:02:01;13.82;;;5.50;;
15637;SDS011;26604;53.596;10.042;2022-08-21T01:04:29;11.30;;;5.45;;
15637;SDS011;26604;53.596;10.042;2022-08-21T01:06:56;8.68;;;5.00;;
15637;SDS011;26604;53.596;10.042;2022-08-21T01:09:23;12.68;;;5.45;;
15637;SDS011;26604;53.596;10.042;2022-08-21T01:11:50;9.30;;;5.25;;
15637;SDS011;26604;53.596;10.042;2022-08-21T01:14:19;12.18;;;5.63;;
15637;SDS011;26604;53.596;10.042;2022-08-21T01:16:46;9.73;;;4.97;;
15637;SDS011;26604;53.596;10.042;2022-08-21T01:19:17;10.80;;;5.40;;
15637;SDS011;26604;53.596;10.042;2022-08-21T01:21:47;10.45;;;5.15;;
15637;SDS011;26604;53.596;10.042;2022-08-21T01:24:14;7.90;;;4.70;;
15637;SDS011;26604;53.596;10.042;2022-08-21T01:26:41;8.95;;;4.63;;
15637;SDS011;26604;53.596;10.042;2022-08-21T01:29:11;9.82;;;4.72;;
15637;SDS011;26604;53.596;10.042;2022-08-21T01:31:40;9.68;;;4.78;;
15637;SDS011;26604;53.596;10.042;2022-08-21T01:34:09;10.50;;;4.05;;
15637;SDS011;26604;53.596;10.042;2022-08-21T01:36:36;9.40;;;4.57;;
15637;SDS011;26604;53.596;10.042;2022-08-21T01:39:05;9.82;;;4.40;;
15637;SDS011;26604;53.596;10.042;2022-08-21T01:41:32;8.65;;;3.83;;
15637;SDS011;26604;53.596;10.042;2022-08-21T01:43:59;12.00;;;4.50;;
15637;SDS011;26604;53.596;10.042;2022-08-21T01:46:26;6.47;;;3.70;;
15637;SDS011;26604;53.596;10.042;2022-08-21T01:48:53;8.95;;;4.10;;
15637;SDS011;26604;53.596;10.042;2022-08-21T01:51:20;7.97;;;4.00;;
15637;SDS011;26604;53.596;10.042;2022-08-21T01:53:47;9.35;;;4.00;;
15637;SDS011;26604;53.596;10.042;2022-08-21T01:56:16;8.13;;;3.33;;
15637;SDS011;26604;53.596;10.042;2022-08-21T01:58:44;6.20;;;3.33;;
15637;SDS011;26604;53.596;10.042;2022-08-21T02:01:12;8.02;;;3.88;;
15637;SDS011;26604;53.596;10.042;2022-08-21T02:03:40;8.95;;;3.90;;
15637;SDS011;26604;53.596;10.042;2022-08-21T02:06:11;7.78;;;3.83;;
15637;SDS011;26604;53.596;10.042;2022-08-21T02:08:40;7.43;;;3.67;;
15637;SDS011;26604;53.596;10.042;2022-08-21T02:11:07;8.55;;;4.30;;
15637;SDS011;26604;53.596;10.042;2022-08-21T02:13:35;6.30;;;3.30;;
15637;SDS011;26604;53.596;10.042;2022-08-21T02:16:02;8.02;;;3.95;;
15637;SDS011;26604;53.596;10.042;2022-08-21T02:18:29;7.72;;;3.15;;
15637;SDS011;26604;53.596;10.042;2022-08-21T02:20:56;10.05;;;3.90;;
15637;SDS011;26604;53.596;10.042;2022-08-21T02:23:23;9.45;;;3.65;;
15637;SDS011;26604;53.596;10.042;2022-08-21T02:25:50;6.65;;;3.67;;
15637;SDS011;26604;53.596;10.042;2022-08-21T02:28:17;6.55;;;3.90;;
15637;SDS011;26604;53.596;10.042;2022-08-21T02:30:46;6.82;;;3.60;;
15637;SDS011;26604;53.596;10.042;2022-08-21T02:33:14;6.38;;;3.67;;
15637;SDS011;26604;53.596;10.042;2022-08-21T02:35:42;6.13;;;3.55;;
15637;SDS011;26604;53.596;10.042;2022-08-21T02:38:12;11.18;;;4.50;;
15637;SDS011;26604;53.596;10.042;2022-08-21T02:40:42;8.07;;;3.78;;
15637;SDS011;26604;53.596;10.042;2022-08-21T02:43:11;7.22;;;4.18;;
15637;SDS011;26604;53.596;10.042;2022-08-21T02:45:40;9.57;;;3.95;;
15637;SDS011;26604;53.596;10.042;2022-08-21T02:48:10;8.73;;;4.07;;
15637;SDS011;26604;53.596;10.042;2022-08-21T02:50:39;11.45;;;4.15;;
15637;SDS011;26604;53.596;10.042;2022-08-21T02:53:09;6.97;;;3.92;;
15637;SDS011;26604;53.596;10.042;2022-08-21T02:55:38;6.55;;;3.83;;
15637;SDS011;26604;53.596;10.042;2022-08-21T02:58:06;11.50;;;4.03;;
15637;SDS011;26604;53.596;10.042;2022-08-21T03:00:34;8.82;;;4.05;;
15637;SDS011;26604;53.596;10.042;2022-08-21T03:03:02;11.00;;;4.15;;
15637;SDS011;26604;53.596;10.042;2022-08-21T03:05:32;5.88;;;3.72;;
15637;SDS011;26604;53.596;10.042;2022-08-21T03:08:02;7.55;;;3.50;;
15637;SDS011;26604;53.596;10.042;2022-08-21T03:10:31;9.98;;;4.07;;
15637;SDS011;26604;53.596;10.042;2022-08-21T03:12:58;8.13;;;3.67;;
15637;SDS011;26604;53.596;10.042;2022-08-21T03:15:27;6.07;;;3.45;;
15637;SDS011;26604;53.596;10.042;2022-08-21T03:17:54;6.72;;;3.53;;
15637;SDS011;26604;53.596;10.042;2022-08-21T03:20:22;11.95;;;4.32;;
15637;SDS011;26604;53.596;10.042;2022-08-21T03:22:54;5.20;;;3.38;;
15637;SDS011;26604;53.596;10.042;2022-08-21T03:25:22;6.55;;;3.75;;
15637;SDS011;26604;53.596;10.042;2022-08-21T03:27:50;6.05;;;3.38;;
15637;SDS011;26604;53.596;10.042;2022-08-21T03:30:18;8.57;;;3.42;;
15637;SDS011;26604;53.596;10.042;2022-08-21T03:32:47;7.13;;;3.75;;
15637;SDS011;26604;53.596;10.042;2022-08-21T03:35:16;6.68;;;3.70;;
15637;SDS011;26604;53.596;10.042;2022-08-21T03:37:43;5.60;;;3.33;;
15637;SDS011;26604;53.596;10.042;2022-08-21T03:40:12;6.82;;;3.35;;
15637;SDS011;26604;53.596;10.042;2022-08-21T03:42:41;8.23;;;4.05;;
15637;SDS011;26604;53.596;10.042;2022-08-21T03:45:09;8.63;;;3.63;;
15637;SDS011;26604;53.596;10.042;2022-08-21T03:47:36;5.78;;;3.13;;
15637;SDS011;26604;53.596;10.042;2022-08-21T03:50:04;5.75;;;3.28;;
15637;SDS011;26604;53.596;10.042;2022-08-21T03:52:32;6.82;;;3.45;;
15637;SDS011;26604;53.596;10.042;2022-08-21T03:54:59;6.88;;;3.30;;
15637;SDS011;26604;53.596;10.042;2022-08-21T03:57:28;6.43;;;3.20;;
15637;SDS011;26604;53.596;10.042;2022-08-21T03:59:55;5.78;;;2.75;;
15637;SDS011;26604;53.596;10.042;2022-08-21T04:02:21;6.78;;;3.53;;
15637;SDS011;26604;53.596;10.042;2022-08-21T04:04:48;7.22;;;3.20;;
15637;SDS011;26604;53.596;10.042;2022-08-21T04:07:15;5.65;;;3.35;;
15637;SDS011;26604;53.596;10.042;2022-08-21T04:09:42;7.13;;;3.63;;
15637;SDS011;26604;53.596;10.042;2022-08-21T04:12:09;7.45;;;3.22;;
15637;SDS011;26604;53.596;10.042;2022-08-21T04:14:38;7.90;;;3.33;;
15637;SDS011;26604;53.596;10.042;2022-08-21T04:17:05;6.50;;;2.78;;
15637;SDS011;26604;53.596;10.042;2022-08-21T04:19:32;7.75;;;3.25;;
15637;SDS011;26604;53.596;10.042;2022-08-21T04:21:59;5.93;;;2.92;;
15637;SDS011;26604;53.596;10.042;2022-08-21T04:24:26;5.38;;;2.65;;
15637;SDS011;26604;53.596;10.042;2022-08-21T04:26:53;5.38;;;3.13;;
15637;SDS011;26604;53.596;10.042;2022-08-21T04:29:20;7.57;;;3.00;;
15637;SDS011;26604;53.596;10.042;2022-08-21T04:31:48;5.70;;;3.08;;
15637;SDS011;26604;53.596;10.042;2022-08-21T04:34:17;6.15;;;3.05;;
15637;SDS011;26604;53.596;10.042;2022-08-21T04:36:44;6.55;;;3.08;;
15637;SDS011;26604;53.596;10.042;2022-08-21T04:39:11;5.07;;;2.90;;
15637;SDS011;26604;53.596;10.042;2022-08-21T04:41:38;8.52;;;3.42;;
15637;SDS011;26604;53.596;10.042;2022-08-21T04:44:06;8.20;;;2.88;;
15637;SDS011;26604;53.596;10.042;2022-08-21T04:46:33;9.10;;;2.70;;
15637;SDS011;26604;53.596;10.042;2022-08-21T04:49:01;4.50;;;2.95;;
15637;SDS011;26604;53.596;10.042;2022-08-21T04:51:29;5.32;;;2.90;;
15637;SDS011;26604;53.596;10.042;2022-08-21T04:53:59;4.63;;;2.30;;
15637;SDS011;26604;53.596;10.042;2022-08-21T04:56:29;5.82;;;2.75;;
15637;SDS011;26604;53.596;10.042;2022-08-21T04:59:01;6.07;;;2.35;;
15637;SDS011;26604;53.596;10.042;2022-08-21T05:01:31;5.40;;;2.80;;
15637;SDS011;26604;53.596;10.042;2022-08-21T05:04:02;4.30;;;2.30;;
15637;SDS011;26604;53.596;10.042;2022-08-21T05:06:33;5.50;;;2.50;;
15637;SDS011;26604;53.596;10.042;2022-08-21T05:09:03;4.85;;;2.58;;
15637;SDS011;26604;53.596;10.042;2022-08-21T05:11:31;3.85;;;2.00;;
15637;SDS011;26604;53.596;10.042;2022-08-21T05:14:00;5.00;;;2.20;;
15637;SDS011;26604;53.596;10.042;2022-08-21T05:16:27;3.88;;;2.42;;
15637;SDS011;26604;53.596;10.042;2022-08-21T05:18:54;3.95;;;2.40;;
15637;SDS011;26604;53.596;10.042;2022-08-21T05:21:22;4.60;;;2.50;;
15637;SDS011;26604;53.596;10.042;2022-08-21T05:23:49;4.55;;;2.30;;
15637;SDS011;26604;53.596;10.042;2022-08-21T05:26:16;6.60;;;2.25;;
15637;SDS011;26604;53.596;10.042;2022-08-21T05:28:42;4.10;;;2.40;;
15637;SDS011;26604;53.596;10.042;2022-08-21T05:31:10;3.63;;;2.22;;
15637;SDS011;26604;53.596;10.042;2022-08-21T05:33:37;3.92;;;2.20;;
15637;SDS011;26604;53.596;10.042;2022-08-21T05:36:04;2.47;;;2.05;;
15637;SDS011;26604;53.596;10.042;2022-08-21T05:38:33;3.05;;;2.25;;
15637;SDS011;26604;53.596;10.042;2022-08-21T05:41:00;4.53;;;2.08;;
15637;SDS011;26604;53.596;10.042;2022-08-21T05:43:27;4.45;;;2.22;;
15637;SDS011;26604;53.596;10.042;2022-08-21T05:45:53;3.67;;;1.88;;
15637;SDS011;26604;53.596;10.042;2022-08-21T05:48:21;3.88;;;1.73;;
15637;SDS011;26604;53.596;10.042;2022-08-21T05:50:50;10.40;;;3.03;;
15637;SDS011;26604;53.596;10.042;2022-08-21T05:53:18;4.07;;;2.00;;
15637;SDS011;26604;53.596;10.042;2022-08-21T05:55:48;3.67;;;1.60;;
15637;SDS011;26604;53.596;10.042;2022-08-21T05:58:17;2.67;;;1.75;;
15637;SDS011;26604;53.596;10.042;2022-08-21T06:00:46;5.68;;;1.55;;
15637;SDS011;26604;53.596;10.042;2022-08-21T06:03:16;3.08;;;2.10;;
15637;SDS011;26604;53.596;10.042;2022-08-21T06:05:44;3.83;;;1.83;;
15637;SDS011;26604;53.596;10.042;2022-08-21T06:08:11;3.42;;;2.00;;
15637;SDS011;26604;53.596;10.042;2022-08-21T06:10:38;2.60;;;1.70;;
15637;SDS011;26604;53.596;10.042;2022-08-21T06:13:06;2.72;;;1.58;;
15637;SDS011;26604;53.596;10.042;2022-08-21T06:15:34;6.10;;;1.63;;
15637;SDS011;26604;53.596;10.042;2022-08-21T06:18:01;3.05;;;1.90;;
15637;SDS011;26604;53.596;10.042;2022-08-21T06:20:28;4.90;;;1.67;;
15637;SDS011;26604;53.596;10.042;2022-08-21T06:22:56;4.07;;;1.50;;
15637;SDS011;26604;53.596;10.042;2022-08-21T06:25:23;2.85;;;1.48;;
15637;SDS011;26604;53.596;10.042;2022-08-21T06:27:50;3.03;;;1.60;;
15637;SDS011;26604;53.596;10.042;2022-08-21T06:30:19;6.28;;;1.70;;
15637;SDS011;26604;53.596;10.042;2022-08-21T06:32:46;4.57;;;1.45;;
15637;SDS011;26604;53.596;10.042;2022-08-21T06:35:13;2.83;;;1.30;;
15637;SDS011;26604;53.596;10.042;2022-08-21T06:37:40;2.22;;;1.42;;
15637;SDS011;26604;53.596;10.042;2022-08-21T06:40:07;3.90;;;1.75;;
15637;SDS011;26604;53.596;10.042;2022-08-21T06:42:35;9.43;;;2.42;;
15637;SDS011;26604;53.596;10.042;2022-08-21T06:45:02;6.00;;;1.50;;
15637;SDS011;26604;53.596;10.042;2022-08-21T06:47:30;3.72;;;1.67;;
15637;SDS011;26604;53.596;10.042;2022-08-21T06:49:57;4.07;;;1.60;;
15637;SDS011;26604;53.596;10.042;2022-08-21T06:52:24;3.58;;;1.50;;
15637;SDS011;26604;53.596;10.042;2022-08-21T06:54:51;3.55;;;1.20;;
15637;SDS011;26604;53.596;10.042;2022-08-21T06:57:18;4.70;;;1.50;;
15637;SDS011;26604;53.596;10.042;2022-08-21T06:59:45;3.53;;;1.60;;
15637;SDS011;26604;53.596;10.042;2022-08-21T07:02:12;3.80;;;1.48;;
15637;SDS011;26604;53.596;10.042;2022-08-21T07:04:40;2.90;;;1.27;;
15637;SDS011;26604;53.596;10.042;2022-08-21T07:07:07;2.85;;;1.23;;
15637;SDS011;26604;53.596;10.042;2022-08-21T07:09:34;5.18;;;1.30;;
15637;SDS011;26604;53.596;10.042;2022-08-21T07:12:01;2.78;;;1.20;;
15637;SDS011;26604;53.596;10.042;2022-08-21T07:14:29;3.05;;;1.15;;
15637;SDS011;26604;53.596;10.042;2022-08-21T07:16:56;7.10;;;1.63;;
15637;SDS011;26604;53.596;10.042;2022-08-21T07:19:22;7.45;;;1.80;;
15637;SDS011;26604;53.596;10.042;2022-08-21T07:21:57;4.40;;;1.60;;
15637;SDS011;26604;53.596;10.042;2022-08-21T07:24:26;8.75;;;2.00;;
15637;SDS011;26604;53.596;10.042;2022-08-21T07:26:53;6.10;;;1.80;;
15637;SDS011;26604;53.596;10.042;2022-08-21T07:29:20;5.10;;;1.70;;
15637;SDS011;26604;53.596;10.042;2022-08-21T07:31:47;3.75;;;1.77;;
15637;SDS011;26604;53.596;10.042;2022-08-21T07:34:14;3.95;;;1.50;;
15637;SDS011;26604;53.596;10.042;2022-08-21T07:36:41;5.88;;;1.70;;
15637;SDS011;26604;53.596;10.042;2022-08-21T07:39:09;5.32;;;1.50;;
15637;SDS011;26604;53.596;10.042;2022-08-21T07:41:36;5.93;;;1.83;;
15637;SDS011;26604;53.596;10.042;2022-08-21T07:44:03;3.97;;;1.42;;
15637;SDS011;26604;53.596;10.042;2022-08-21T07:46:30;3.30;;;1.30;;
15637;SDS011;26604;53.596;10.042;2022-08-21T07:48:57;4.72;;;1.55;;
15637;SDS011;26604;53.596;10.042;2022-08-21T07:51:24;6.00;;;1.77;;
15637;SDS011;26604;53.596;10.042;2022-08-21T07:53:54;3.83;;;1.63;;
15637;SDS011;26604;53.596;10.042;2022-08-21T07:56:23;6.55;;;1.70;;
15637;SDS011;26604;53.596;10.042;2022-08-21T07:58:51;3.22;;;1.67;;
15637;SDS011;26604;53.596;10.042;2022-08-21T08:01:18;4.43;;;1.80;;
15637;SDS011;26604;53.596;10.042;2022-08-21T08:03:45;5.30;;;2.22;;
15637;SDS011;26604;53.596;10.042;2022-08-21T08:06:12;2.22;;;1.25;;
15637;SDS011;26604;53.596;10.042;2022-08-21T08:08:39;5.95;;;1.50;;
15637;SDS011;26604;53.596;10.042;2022-08-21T08:11:06;5.20;;;1.20;;
15637;SDS011;26604;53.596;10.042;2022-08-21T08:13:39;2.83;;;1.33;;
15637;SDS011;26604;53.596;10.042;2022-08-21T08:16:06;3.42;;;1.40;;
15637;SDS011;26604;53.596;10.042;2022-08-21T08:18:34;9.60;;;2.10;;
15637;SDS011;26604;53.596;10.042;2022-08-21T08:21:00;2.92;;;1.20;;
15637;SDS011;26604;53.596;10.042;2022-08-21T08:23:27;4.82;;;1.48;;
15637;SDS011;26604;53.596;10.042;2022-08-21T08:25:55;4.88;;;1.48;;
15637;SDS011;26604;53.596;10.042;2022-08-21T08:28:22;5.88;;;1.38;;
15637;SDS011;26604;53.596;10.042;2022-08-21T08:30:50;4.72;;;1.55;;
15637;SDS011;26604;53.596;10.042;2022-08-21T08:33:18;2.85;;;1.83;;
15637;SDS011;26604;53.596;10.042;2022-08-21T08:35:46;4.72;;;1.67;;
15637;SDS011;26604;53.596;10.042;2022-08-21T08:38:14;2.60;;;1.52;;
15637;SDS011;26604;53.596;10.042;2022-08-21T08:40:45;3.95;;;1.67;;
15637;SDS011;26604;53.596;10.042;2022-08-21T08:43:25;4.55;;;1.23;;
15637;SDS011;26604;53.596;10.042;2022-08-21T08:45:55;2.25;;;1.33;;
15637;SDS011;26604;53.596;10.042;2022-08-21T08:48:30;2.15;;;1.45;;
15637;SDS011;26604;53.596;10.042;2022-08-21T08:51:06;4.15;;;1.70;;
15637;SDS011;26604;53.596;10.042;2022-08-21T08:53:42;2.78;;;1.80;;
15637;SDS011;26604;53.596;10.042;2022-08-21T08:56:14;2.90;;;1.48;;
15637;SDS011;26604;53.596;10.042;2022-08-21T08:58:42;4.03;;;1.75;;
15637;SDS011;26604;53.596;10.042;2022-08-21T09:01:15;3.42;;;1.48;;
15637;SDS011;26604;53.596;10.042;2022-08-21T09:03:44;4.05;;;1.75;;
15637;SDS011;26604;53.596;10.042;2022-08-21T09:06:18;3.17;;;1.70;;
15637;SDS011;26604;53.596;10.042;2022-08-21T09:09:05;2.53;;;1.65;;
15637;SDS011;26604;53.596;10.042;2022-08-21T09:11:41;4.38;;;1.50;;
15637;SDS011;26604;53.596;10.042;2022-08-21T09:14:14;2.85;;;1.60;;
15637;SDS011;26604;53.596;10.042;2022-08-21T09:16:53;4.68;;;1.70;;
15637;SDS011;26604;53.596;10.042;2022-08-21T09:19:29;4.20;;;1.80;;
15637;SDS011;26604;53.596;10.042;2022-08-21T09:22:07;3.60;;;1.92;;
15637;SDS011;26604;53.596;10.042;2022-08-21T09:24:46;6.65;;;2.05;;
15637;SDS011;26604;53.596;10.042;2022-08-21T09:27:19;3.28;;;1.50;;
15637;SDS011;26604;53.596;10.042;2022-08-21T09:29:48;3.25;;;1.50;;
15637;SDS011;26604;53.596;10.042;2022-08-21T09:32:21;4.88;;;1.55;;
15637;SDS011;26604;53.596;10.042;2022-08-21T09:34:57;5.00;;;1.63;;
15637;SDS011;26604;53.596;10.042;2022-08-21T09:37:26;5.03;;;1.80;;
15637;SDS011;26604;53.596;10.042;2022-08-21T09:39:55;4.72;;;1.73;;
15637;SDS011;26604;53.596;10.042;2022-08-21T09:42:24;4.95;;;1.73;;
15637;SDS011;26604;53.596;10.042;2022-08-21T09:45:04;4.55;;;1.63;;
15637;SDS011;26604;53.596;10.042;2022-08-21T09:47:37;7.68;;;1.77;;
15637;SDS011;26604;53.596;10.042;2022-08-21T09:50:08;5.22;;;1.80;;
15637;SDS011;26604;53.596;10.042;2022-08-21T09:52:42;3.92;;;1.75;;
15637;SDS011;26604;53.596;10.042;2022-08-21T09:55:15;3.90;;;1.85;;
15637;SDS011;26604;53.596;10.042;2022-08-21T09:58:07;5.15;;;1.75;;
15637;SDS011;26604;53.596;10.042;2022-08-21T10:00:34;5.53;;;1.73;;
15637;SDS011;26604;53.596;10.042;2022-08-21T10:03:14;6.07;;;1.10;;
15637;SDS011;26604;53.596;10.042;2022-08-21T10:05:54;3.78;;;1.50;;
15637;SDS011;26604;53.596;10.042;2022-08-21T10:08:24;3.90;;;1.67;;
15637;SDS011;26604;53.596;10.042;2022-08-21T10:10:54;4.35;;;1.60;;
15637;SDS011;26604;53.596;10.042;2022-08-21T10:13:26;4.18;;;1.55;;
15637;SDS011;26604;53.596;10.042;2022-08-21T10:16:08;3.95;;;1.95;;
15637;SDS011;26604;53.596;10.042;2022-08-21T10:18:54;2.22;;;1.40;;
15637;SDS011;26604;53.596;10.042;2022-08-21T10:21:29;5.45;;;1.55;;
15637;SDS011;26604;53.596;10.042;2022-08-21T10:24:04;3.75;;;1.65;;
15637;SDS011;26604;53.596;10.042;2022-08-21T10:26:39;2.45;;;1.50;;
15637;SDS011;26604;53.596;10.042;2022-08-21T10:29:17;3.88;;;1.42;;
15637;SDS011;26604;53.596;10.042;2022-08-21T10:31:57;3.35;;;1.70;;
15637;SDS011;26604;53.596;10.042;2022-08-21T10:34:36;3.67;;;1.73;;
15637;SDS011;26604;53.596;10.042;2022-08-21T10:37:18;5.95;;;1.60;;
15637;SDS011;26604;53.596;10.042;2022-08-21T10:39:54;8.00;;;2.15;;
15637;SDS011;26604;53.596;10.042;2022-08-21T10:42:30;4.63;;;1.70;;
15637;SDS011;26604;53.596;10.042;2022-08-21T10:45:13;3.42;;;1.45;;
15637;SDS011;26604;53.596;10.042;2022-08-21T10:47:47;4.72;;;1.80;;
15637;SDS011;26604;53.596;10.042;2022-08-21T10:50:22;6.53;;;1.50;;
15637;SDS011;26604;53.596;10.042;2022-08-21T10:53:05;9.32;;;2.00;;
15637;SDS011;26604;53.596;10.042;2022-08-21T10:55:43;7.90;;;1.95;;
15637;SDS011;26604;53.596;10.042;2022-08-21T10:58:18;7.45;;;1.95;;
15637;SDS011;26604;53.596;10.042;2022-08-21T11:00:49;7.75;;;1.65;;
15637;SDS011;26604;53.596;10.042;2022-08-21T11:03:23;4.30;;;1.85;;
15637;SDS011;26604;53.596;10.042;2022-08-21T11:05:58;3.35;;;1.58;;
15637;SDS011;26604;53.596;10.042;2022-08-21T11:08:31;4.60;;;2.00;;
15637;SDS011;26604;53.596;10.042;2022-08-21T11:11:05;5.97;;;1.80;;
15637;SDS011;26604;53.596;10.042;2022-08-21T11:13:38;4.93;;;1.90;;
15637;SDS011;26604;53.596;10.042;2022-08-21T11:16:10;5.28;;;2.20;;
15637;SDS011;26604;53.596;10.042;2022-08-21T11:18:46;3.15;;;1.65;;
15637;SDS011;26604;53.596;10.042;2022-08-21T11:21:32;3.97;;;2.00;;
15637;SDS011;26604;53.596;10.042;2022-08-21T11:24:08;4.18;;;1.80;;
15637;SDS011;26604;53.596;10.042;2022-08-21T11:26:44;11.02;;;2.63;;
15637;SDS011;26604;53.596;10.042;2022-08-21T11:29:18;10.60;;;1.85;;
15637;SDS011;26604;53.596;10.042;2022-08-21T11:31:54;6.85;;;1.80;;
15637;SDS011;26604;53.596;10.042;2022-08-21T11:34:39;14.98;;;2.80;;
15637;SDS011;26604;53.596;10.042;2022-08-21T11:37:20;12.20;;;2.53;;
15637;SDS011;26604;53.596;10.042;2022-08-21T11:39:57;7.72;;;2.05;;
15637;SDS011;26604;53.596;10.042;2022-08-21T11:42:33;7.13;;;2.60;;
15637;SDS011;26604;53.596;10.042;2022-08-21T11:45:10;8.70;;;2.53;;
15637;SDS011;26604;53.596;10.042;2022-08-21T11:47:50;4.70;;;2.10;;
15637;SDS011;26604;53.596;10.042;2022-08-21T11:50:26;8.25;;;2.00;;
15637;SDS011;26604;53.596;10.042;2022-08-21T11:52:56;5.65;;;2.35;;
15637;SDS011;26604;53.596;10.042;2022-08-21T11:55:30;7.45;;;2.10;;
15637;SDS011;26604;53.596;10.042;2022-08-21T11:58:02;4.00;;;1.80;;
15637;SDS011;26604;53.596;10.042;2022-08-21T12:00:34;7.53;;;2.00;;
15637;SDS011;26604;53.596;10.042;2022-08-21T12:03:10;6.18;;;1.90;;
15637;SDS011;26604;53.596;10.042;2022-08-21T12:05:40;7.05;;;1.80;;
15637;SDS011;26604;53.596;10.042;2022-08-21T12:08:13;5.20;;;1.92;;
15637;SDS011;26604;53.596;10.042;2022-08-21T12:10:59;3.65;;;1.63;;
15637;SDS011;26604;53.596;10.042;2022-08-21T12:13:29;4.65;;;1.90;;
15637;SDS011;26604;53.596;10.042;2022-08-21T12:16:04;10.02;;;2.08;;
15637;SDS011;26604;53.596;10.042;2022-08-21T12:18:33;6.28;;;1.70;;
15637;SDS011;26604;53.596;10.042;2022-08-21T12:21:04;3.72;;;1.50;;
15637;SDS011;26604;53.596;10.042;2022-08-21T12:23:46;3.03;;;1.55;;
15637;SDS011;26604;53.596;10.042;2022-08-21T12:26:19;3.05;;;1.38;;
15637;SDS011;26604;53.596;10.042;2022-08-21T12:29:02;6.28;;;1.58;;
15637;SDS011;26604;53.596;10.042;2022-08-21T12:31:31;5.55;;;1.65;;
15637;SDS011;26604;53.596;10.042;2022-08-21T12:33:58;5.03;;;1.60;;
15637;SDS011;26604;53.596;10.042;2022-08-21T12:36:33;6.15;;;1.70;;
15637;SDS011;26604;53.596;10.042;2022-08-21T12:39:13;6.05;;;1.65;;
15637;SDS011;26604;53.596;10.042;2022-08-21T12:41:45;2.58;;;1.38;;
15637;SDS011;26604;53.596;10.042;2022-08-21T12:44:16;3.67;;;1.60;;
15637;SDS011;26604;53.596;10.042;2022-08-21T12:46:50;8.52;;;1.60;;
15637;SDS011;26604;53.596;10.042;2022-08-21T12:49:23;6.07;;;1.48;;
15637;SDS011;26604;53.596;10.042;2022-08-21T12:51:56;3.53;;;1.70;;
15637;SDS011;26604;53.596;10.042;2022-08-21T12:54:37;4.90;;;1.45;;
15637;SDS011;26604;53.596;10.042;2022-08-21T12:57:06;2.95;;;1.30;;
15637;SDS011;26604;53.596;10.042;2022-08-21T12:59:36;6.28;;;1.67;;
15637;SDS011;26604;53.596;10.042;2022-08-21T13:02:03;3.38;;;1.40;;
15637;SDS011;26604;53.596;10.042;2022-08-21T13:04:40;5.97;;;1.92;;
15637;SDS011;26604;53.596;10.042;2022-08-21T13:07:09;4.60;;;1.90;;
15637;SDS011;26604;53.596;10.042;2022-08-21T13:09:47;3.65;;;1.45;;
15637;SDS011;26604;53.596;10.042;2022-08-21T13:12:17;5.32;;;1.70;;
15637;SDS011;26604;53.596;10.042;2022-08-21T13:14:46;4.80;;;1.67;;
15637;SDS011;26604;53.596;10.042;2022-08-21T13:17:16;4.40;;;1.67;;
15637;SDS011;26604;53.596;10.042;2022-08-21T13:19:52;9.88;;;2.08;;
15637;SDS011;26604;53.596;10.042;2022-08-21T13:22:20;8.00;;;2.03;;
15637;SDS011;26604;53.596;10.042;2022-08-21T13:24:48;4.80;;;1.83;;
15637;SDS011;26604;53.596;10.042;2022-08-21T13:27:20;4.32;;;1.60;;
15637;SDS011;26604;53.596;10.042;2022-08-21T13:30:00;5.47;;;1.67;;
15637;SDS011;26604;53.596;10.042;2022-08-21T13:32:30;5.28;;;1.95;;
15637;SDS011;26604;53.596;10.042;2022-08-21T13:34:59;6.60;;;1.73;;
15637;SDS011;26604;53.596;10.042;2022-08-21T13:37:35;9.10;;;2.10;;
15637;SDS011;26604;53.596;10.042;2022-08-21T13:40:07;9.85;;;1.70;;
15637;SDS011;26604;53.596;10.042;2022-08-21T13:42:39;6.05;;;1.70;;
15637;SDS011;26604;53.596;10.042;2022-08-21T13:45:11;5.13;;;1.58;;
15637;SDS011;26604;53.596;10.042;2022-08-21T13:47:40;4.85;;;1.52;;
15637;SDS011;26604;53.596;10.042;2022-08-21T13:50:08;8.68;;;1.92;;
15637;SDS011;26604;53.596;10.042;2022-08-21T13:52:46;7.60;;;1.88;;
15637;SDS011;26604;53.596;10.042;2022-08-21T13:55:17;7.65;;;1.80;;
15637;SDS011;26604;53.596;10.042;2022-08-21T13:57:44;7.90;;;1.70;;
15637;SDS011;26604;53.596;10.042;2022-08-21T14:00:12;6.40;;;1.50;;
15637;SDS011;26604;53.596;10.042;2022-08-21T14:02:43;5.18;;;1.70;;
15637;SDS011;26604;53.596;10.042;2022-08-21T14:05:16;4.35;;;1.63;;
15637;SDS011;26604;53.596;10.042;2022-08-21T14:07:47;5.90;;;1.70;;
15637;SDS011;26604;53.596;10.042;2022-08-21T14:10:19;5.38;;;1.42;;
15637;SDS011;26604;53.596;10.042;2022-08-21T14:12:49;5.25;;;1.50;;
15637;SDS011;26604;53.596;10.042;2022-08-21T14:15:23;3.33;;;1.80;;
15637;SDS011;26604;53.596;10.042;2022-08-21T14:17:53;5.68;;;1.40;;
15637;SDS011;26604;53.596;10.042;2022-08-21T14:20:28;4.20;;;1.35;;
15637;SDS011;26604;53.596;10.042;2022-08-21T14:22:57;5.97;;;1.70;;
15637;SDS011;26604;53.596;10.042;2022-08-21T14:25:30;7.35;;;2.08;;
15637;SDS011;26604;53.596;10.042;2022-08-21T14:28:04;3.03;;;1.40;;
15637;SDS011;26604;53.596;10.042;2022-08-21T14:30:46;3.80;;;1.45;;
15637;SDS011;26604;53.596;10.042;2022-08-21T14:33:16;4.38;;;1.58;;
15637;SDS011;26604;53.596;10.042;2022-08-21T14:35:49;3.67;;;1.40;;
15637;SDS011;26604;53.596;10.042;2022-08-21T14:38:16;5.90;;;1.50;;
15637;SDS011;26604;53.596;10.042;2022-08-21T14:40:47;2.95;;;1.20;;
15637;SDS011;26604;53.596;10.042;2022-08-21T14:43:15;2.42;;;1.10;;
15637;SDS011;26604;53.596;10.042;2022-08-21T14:45:44;2.53;;;1.20;;
15637;SDS011;26604;53.596;10.042;2022-08-21T14:48:11;4.43;;;1.20;;
15637;SDS011;26604;53.596;10.042;2022-08-21T14:50:38;2.92;;;1.33;;